sensor_id;sensor_type;location;lat;lon;timestamp;temperature;humidity
1415;DHT22;702;49.466;11.086;2023-03-12T00:00:57;-0.80;85.50
1415;DHT22;702;49.466;11.086;2023-03-12T00:03:25;-0.70;85.80
1415;DHT22;702;49.466;11.086;2023-03-12T00:05:53;-0.70;85.40
1415;DHT22;702;49.466;11.086;2023-03-12T00:08:20;-0.80;85.40
1415;DHT22;702;49.466;11.086;2023-03-12T00:10:48;-0.80;85.40
1415;DHT22;702;49.466;11.086;2023-03-12T00:13:15;-0.80;85.50
1415;DHT22;702;49.466;11.086;2023-03-12T00:15:42;-0.80;85.60
1415;DHT22;702;49.466;11.086;2023-03-12T00:18:09;-0.80;85.60
1415;DHT22;702;49.466;11.086;2023-03-12T00:20:36;-0.80;85.40
1415;DHT22;702;49.466;11.086;2023-03-12T00:23:05;-0.90;84.70
1415;DHT22;702;49.466;11.086;2023-03-12T00:25:33;-0.90;84.80
1415;DHT22;702;49.466;11.086;2023-03-12T00:28:00;-0.90;85.10
1415;DHT22;702;49.466;11.086;2023-03-12T00:30:27;-1.00;84.50
1415;DHT22;702;49.466;11.086;2023-03-12T00:32:54;-1.00;84.80
1415;DHT22;702;49.466;11.086;2023-03-12T00:35:22;-1.00;85.40
1415;DHT22;702;49.466;11.086;2023-03-12T00:37:51;-1.00;85.40
1415;DHT22;702;49.466;11.086;2023-03-12T00:40:20;-1.00;85.60
1415;DHT22;702;49.466;11.086;2023-03-12T00:42:47;-1.00;85.60
1415;DHT22;702;49.466;11.086;2023-03-12T00:45:14;-1.00;86.10
1415;DHT22;702;49.466;11.086;2023-03-12T00:47:41;-1.00;85.70
1415;DHT22;702;49.466;11.086;2023-03-12T00:50:09;-1.00;87.10
1415;DHT22;702;49.466;11.086;2023-03-12T00:52:36;-1.00;87.40
1415;DHT22;702;49.466;11.086;2023-03-12T00:55:04;-0.90;86.90
1415;DHT22;702;49.466;11.086;2023-03-12T00:57:33;-0.90;86.40
1415;DHT22;702;49.466;11.086;2023-03-12T01:00:00;-0.80;84.70
1415;DHT22;702;49.466;11.086;2023-03-12T01:02:28;-0.90;84.80
1415;DHT22;702;49.466;11.086;2023-03-12T01:04:56;-1.00;84.80
1415;DHT22;702;49.466;11.086;2023-03-12T01:07:23;-1.20;85.20
1415;DHT22;702;49.466;11.086;2023-03-12T01:09:51;-1.30;85.90
1415;DHT22;702;49.466;11.086;2023-03-12T01:12:18;-1.40;86.70
1415;DHT22;702;49.466;11.086;2023-03-12T01:14:46;-1.40;86.70
1415;DHT22;702;49.466;11.086;2023-03-12T01:17:14;-1.40;87.80
1415;DHT22;702;49.466;11.086;2023-03-12T01:19:41;-1.50;88.20
1415;DHT22;702;49.466;11.086;2023-03-12T01:22:09;-1.40;89.70
1415;DHT22;702;49.466;11.086;2023-03-12T01:24:36;-1.20;88.80
1415;DHT22;702;49.466;11.086;2023-03-12T01:27:04;-1.20;86.70
1415;DHT22;702;49.466;11.086;2023-03-12T01:29:31;-1.20;86.00
1415;DHT22;702;49.466;11.086;2023-03-12T01:31:59;-1.30;86.30
1415;DHT22;702;49.466;11.086;2023-03-12T01:34:27;-1.30;85.90
1415;DHT22;702;49.466;11.086;2023-03-12T01:36:55;-1.30;86.00
1415;DHT22;702;49.466;11.086;2023-03-12T01:39:22;-1.40;86.00
1415;DHT22;702;49.466;11.086;2023-03-12T01:41:50;-1.40;87.20
1415;DHT22;702;49.466;11.086;2023-03-12T01:44:17;-1.40;86.40
1415;DHT22;702;49.466;11.086;2023-03-12T01:46:45;-1.40;86.70
1415;DHT22;702;49.466;11.086;2023-03-12T01:49:16;-1.50;86.60
1415;DHT22;702;49.466;11.086;2023-03-12T01:51:49;-1.50;86.10
1415;DHT22;702;49.466;11.086;2023-03-12T01:54:21;-1.50;87.70
1415;DHT22;702;49.466;11.086;2023-03-12T01:56:50;-1.50;87.20
1415;DHT22;702;49.466;11.086;2023-03-12T01:59:22;-1.50;87.20
1415;DHT22;702;49.466;11.086;2023-03-12T02:01:51;-1.60;87.10
1415;DHT22;702;49.466;11.086;2023-03-12T02:04:22;-1.60;87.10
1415;DHT22;702;49.466;11.086;2023-03-12T02:06:55;-1.70;88.30
1415;DHT22;702;49.466;11.086;2023-03-12T02:09:24;-1.70;88.40
1415;DHT22;702;49.466;11.086;2023-03-12T02:11:52;-1.80;88.30
1415;DHT22;702;49.466;11.086;2023-03-12T02:14:19;-1.90;89.40
1415;DHT22;702;49.466;11.086;2023-03-12T02:16:46;-1.90;90.20
1415;DHT22;702;49.466;11.086;2023-03-12T02:19:18;-2.00;90.20
1415;DHT22;702;49.466;11.086;2023-03-12T02:21:50;-1.90;90.80
1415;DHT22;702;49.466;11.086;2023-03-12T02:24:24;-1.90;91.10
1415;DHT22;702;49.466;11.086;2023-03-12T02:26:56;-1.80;91.00
1415;DHT22;702;49.466;11.086;2023-03-12T02:29:25;-1.70;90.90
1415;DHT22;702;49.466;11.086;2023-03-12T02:31:56;-1.70;90.40
1415;DHT22;702;49.466;11.086;2023-03-12T02:34:26;-1.60;90.70
1415;DHT22;702;49.466;11.086;2023-03-12T02:36:53;-1.60;90.10
1415;DHT22;702;49.466;11.086;2023-03-12T02:39:21;-1.50;90.40
1415;DHT22;702;49.466;11.086;2023-03-12T02:41:50;-1.50;89.60
1415;DHT22;702;49.466;11.086;2023-03-12T02:44:21;-1.50;89.80
1415;DHT22;702;49.466;11.086;2023-03-12T02:46:50;-1.40;89.90
1415;DHT22;702;49.466;11.086;2023-03-12T02:49:20;-1.30;89.20
1415;DHT22;702;49.466;11.086;2023-03-12T02:51:49;-1.30;88.10
1415;DHT22;702;49.466;11.086;2023-03-12T02:54:18;-1.30;88.20
1415;DHT22;702;49.466;11.086;2023-03-12T02:56:46;-1.30;89.10
1415;DHT22;702;49.466;11.086;2023-03-12T02:59:15;-1.20;87.40
1415;DHT22;702;49.466;11.086;2023-03-12T03:01:46;-1.20;87.10
1415;DHT22;702;49.466;11.086;2023-03-12T03:04:19;-1.30;87.90
1415;DHT22;702;49.466;11.086;2023-03-12T03:06:46;-1.20;87.90
1415;DHT22;702;49.466;11.086;2023-03-12T03:09:14;-1.20;87.90
1415;DHT22;702;49.466;11.086;2023-03-12T03:11:41;-1.20;88.00
1415;DHT22;702;49.466;11.086;2023-03-12T03:14:09;-1.10;86.30
1415;DHT22;702;49.466;11.086;2023-03-12T03:16:36;-1.20;86.60
1415;DHT22;702;49.466;11.086;2023-03-12T03:19:05;-1.10;86.40
1415;DHT22;702;49.466;11.086;2023-03-12T03:21:33;-1.00;85.80
1415;DHT22;702;49.466;11.086;2023-03-12T03:24:00;-1.00;85.30
1415;DHT22;702;49.466;11.086;2023-03-12T03:26:27;-1.00;85.50
1415;DHT22;702;49.466;11.086;2023-03-12T03:28:55;-1.00;84.50
1415;DHT22;702;49.466;11.086;2023-03-12T03:31:22;-0.90;84.60
1415;DHT22;702;49.466;11.086;2023-03-12T03:33:49;-1.00;83.70
1415;DHT22;702;49.466;11.086;2023-03-12T03:36:19;-1.00;83.20
1415;DHT22;702;49.466;11.086;2023-03-12T03:38:48;-1.00;83.50
1415;DHT22;702;49.466;11.086;2023-03-12T03:41:15;-1.00;82.80
1415;DHT22;702;49.466;11.086;2023-03-12T03:43:44;-1.00;82.50
1415;DHT22;702;49.466;11.086;2023-03-12T03:46:12;-1.10;82.80
1415;DHT22;702;49.466;11.086;2023-03-12T03:48:40;-1.10;82.90
1415;DHT22;702;49.466;11.086;2023-03-12T03:51:08;-1.10;83.30
1415;DHT22;702;49.466;11.086;2023-03-12T03:53:38;-1.10;83.50
1415;DHT22;702;49.466;11.086;2023-03-12T03:56:07;-1.00;83.50
1415;DHT22;702;49.466;11.086;2023-03-12T03:58:35;-1.00;83.30
1415;DHT22;702;49.466;11.086;2023-03-12T04:01:02;-1.00;83.40
1415;DHT22;702;49.466;11.086;2023-03-12T04:03:31;-1.00;83.10
1415;DHT22;702;49.466;11.086;2023-03-12T04:06:00;-1.00;83.10
1415;DHT22;702;49.466;11.086;2023-03-12T04:08:28;-1.00;82.90
1415;DHT22;702;49.466;11.086;2023-03-12T04:11:07;-1.00;83.70
1415;DHT22;702;49.466;11.086;2023-03-12T04:13:35;-1.00;83.60
1415;DHT22;702;49.466;11.086;2023-03-12T04:16:03;-1.00;83.40
1415;DHT22;702;49.466;11.086;2023-03-12T04:18:31;-0.90;83.30
1415;DHT22;702;49.466;11.086;2023-03-12T04:20:58;-0.90;82.90
1415;DHT22;702;49.466;11.086;2023-03-12T04:23:26;-0.90;82.70
1415;DHT22;702;49.466;11.086;2023-03-12T04:25:53;-0.80;82.10
1415;DHT22;702;49.466;11.086;2023-03-12T04:28:21;-0.80;81.90
1415;DHT22;702;49.466;11.086;2023-03-12T04:30:53;-0.80;82.50
1415;DHT22;702;49.466;11.086;2023-03-12T04:33:21;-0.70;81.90
1415;DHT22;702;49.466;11.086;2023-03-12T04:35:52;-0.70;81.00
1415;DHT22;702;49.466;11.086;2023-03-12T04:38:19;-0.70;81.30
1415;DHT22;702;49.466;11.086;2023-03-12T04:40:47;-0.80;81.30
1415;DHT22;702;49.466;11.086;2023-03-12T04:43:25;-0.90;81.70
1415;DHT22;702;49.466;11.086;2023-03-12T04:45:52;-0.80;82.30
1415;DHT22;702;49.466;11.086;2023-03-12T04:48:19;-0.80;81.50
1415;DHT22;702;49.466;11.086;2023-03-12T04:50:47;-0.70;82.00
1415;DHT22;702;49.466;11.086;2023-03-12T04:53:14;-0.70;81.40
1415;DHT22;702;49.466;11.086;2023-03-12T04:55:41;-0.60;81.40
1415;DHT22;702;49.466;11.086;2023-03-12T04:58:08;-0.70;80.90
1415;DHT22;702;49.466;11.086;2023-03-12T05:00:38;-0.70;80.80
1415;DHT22;702;49.466;11.086;2023-03-12T05:03:05;-0.60;80.60
1415;DHT22;702;49.466;11.086;2023-03-12T05:05:33;-0.70;80.50
1415;DHT22;702;49.466;11.086;2023-03-12T05:08:01;-0.70;80.10
1415;DHT22;702;49.466;11.086;2023-03-12T05:10:28;-0.80;80.70
1415;DHT22;702;49.466;11.086;2023-03-12T05:12:55;-0.80;81.00
1415;DHT22;702;49.466;11.086;2023-03-12T05:15:23;-0.90;82.20
1415;DHT22;702;49.466;11.086;2023-03-12T05:17:59;-0.90;82.40
1415;DHT22;702;49.466;11.086;2023-03-12T05:20:27;-0.90;82.90
1415;DHT22;702;49.466;11.086;2023-03-12T05:22:54;-0.90;82.70
1415;DHT22;702;49.466;11.086;2023-03-12T05:25:21;-0.90;82.90
1415;DHT22;702;49.466;11.086;2023-03-12T05:27:49;-1.00;82.70
1415;DHT22;702;49.466;11.086;2023-03-12T05:30:16;-1.00;83.80
1415;DHT22;702;49.466;11.086;2023-03-12T05:32:43;-1.00;84.70
1415;DHT22;702;49.466;11.086;2023-03-12T05:35:12;-1.00;84.20
1415;DHT22;702;49.466;11.086;2023-03-12T05:37:40;-0.90;84.00
1415;DHT22;702;49.466;11.086;2023-03-12T05:40:09;-0.80;84.70
1415;DHT22;702;49.466;11.086;2023-03-12T05:42:37;-0.80;83.00
1415;DHT22;702;49.466;11.086;2023-03-12T05:45:05;-0.80;82.60
1415;DHT22;702;49.466;11.086;2023-03-12T05:47:34;-0.80;82.40
1415;DHT22;702;49.466;11.086;2023-03-12T05:50:01;-0.70;82.40
1415;DHT22;702;49.466;11.086;2023-03-12T05:52:29;-0.70;82.00
1415;DHT22;702;49.466;11.086;2023-03-12T05:54:57;-0.70;81.80
1415;DHT22;702;49.466;11.086;2023-03-12T05:57:24;-0.70;81.80
1415;DHT22;702;49.466;11.086;2023-03-12T05:59:52;-0.50;81.50
1415;DHT22;702;49.466;11.086;2023-03-12T06:02:19;-0.50;81.00
1415;DHT22;702;49.466;11.086;2023-03-12T06:04:47;-0.50;80.10
1415;DHT22;702;49.466;11.086;2023-03-12T06:07:14;-0.30;79.90
1415;DHT22;702;49.466;11.086;2023-03-12T06:09:42;-0.40;79.30
1415;DHT22;702;49.466;11.086;2023-03-12T06:12:10;-0.40;79.00
1415;DHT22;702;49.466;11.086;2023-03-12T06:14:37;-0.40;79.10
1415;DHT22;702;49.466;11.086;2023-03-12T06:17:04;-0.40;78.90
1415;DHT22;702;49.466;11.086;2023-03-12T06:19:31;-0.40;78.70
1415;DHT22;702;49.466;11.086;2023-03-12T06:21:59;-0.30;79.00
1415;DHT22;702;49.466;11.086;2023-03-12T06:24:26;0.00;78.60
1415;DHT22;702;49.466;11.086;2023-03-12T06:26:54;0.20;77.70
1415;DHT22;702;49.466;11.086;2023-03-12T06:29:21;0.10;76.80
1415;DHT22;702;49.466;11.086;2023-03-12T06:31:49;0.10;77.10
1415;DHT22;702;49.466;11.086;2023-03-12T06:34:17;0.30;77.00
1415;DHT22;702;49.466;11.086;2023-03-12T06:36:44;0.40;76.30
1415;DHT22;702;49.466;11.086;2023-03-12T06:39:11;0.60;75.80
1415;DHT22;702;49.466;11.086;2023-03-12T06:41:38;0.70;75.30
1415;DHT22;702;49.466;11.086;2023-03-12T06:44:08;0.80;74.80
1415;DHT22;702;49.466;11.086;2023-03-12T06:46:35;0.80;74.50
1415;DHT22;702;49.466;11.086;2023-03-12T06:49:02;1.00;73.90
1415;DHT22;702;49.466;11.086;2023-03-12T06:51:30;1.20;73.50
1415;DHT22;702;49.466;11.086;2023-03-12T06:53:57;1.30;73.20
1415;DHT22;702;49.466;11.086;2023-03-12T06:56:26;1.40;72.60
1415;DHT22;702;49.466;11.086;2023-03-12T06:58:53;1.40;71.70
1415;DHT22;702;49.466;11.086;2023-03-12T07:01:22;1.40;71.80
1415;DHT22;702;49.466;11.086;2023-03-12T07:03:49;1.30;72.00
1415;DHT22;702;49.466;11.086;2023-03-12T07:06:17;1.40;71.80
1415;DHT22;702;49.466;11.086;2023-03-12T07:08:47;1.50;71.30
1415;DHT22;702;49.466;11.086;2023-03-12T07:11:14;1.70;71.10
1415;DHT22;702;49.466;11.086;2023-03-12T07:13:42;1.70;70.40
1415;DHT22;702;49.466;11.086;2023-03-12T07:16:10;1.80;70.30
1415;DHT22;702;49.466;11.086;2023-03-12T07:18:39;1.90;70.10
1415;DHT22;702;49.466;11.086;2023-03-12T07:21:06;2.10;69.40
1415;DHT22;702;49.466;11.086;2023-03-12T07:23:33;2.10;69.40
1415;DHT22;702;49.466;11.086;2023-03-12T07:26:03;2.20;69.30
1415;DHT22;702;49.466;11.086;2023-03-12T07:28:30;2.30;69.30
1415;DHT22;702;49.466;11.086;2023-03-12T07:31:01;2.60;68.30
1415;DHT22;702;49.466;11.086;2023-03-12T07:33:28;2.70;68.30
1415;DHT22;702;49.466;11.086;2023-03-12T07:35:57;2.80;67.50
1415;DHT22;702;49.466;11.086;2023-03-12T07:38:25;2.80;67.00
1415;DHT22;702;49.466;11.086;2023-03-12T07:40:53;2.90;66.60
1415;DHT22;702;49.466;11.086;2023-03-12T07:43:23;2.80;66.40
1415;DHT22;702;49.466;11.086;2023-03-12T07:45:50;2.90;66.40
1415;DHT22;702;49.466;11.086;2023-03-12T07:48:18;3.10;66.00
1415;DHT22;702;49.466;11.086;2023-03-12T07:50:45;3.40;64.90
1415;DHT22;702;49.466;11.086;2023-03-12T07:53:14;3.50;64.30
1415;DHT22;702;49.466;11.086;2023-03-12T07:55:43;3.50;64.20
1415;DHT22;702;49.466;11.086;2023-03-12T07:58:10;3.60;63.20
1415;DHT22;702;49.466;11.086;2023-03-12T08:00:38;3.60;62.70
1415;DHT22;702;49.466;11.086;2023-03-12T08:03:05;3.50;62.80
1415;DHT22;702;49.466;11.086;2023-03-12T08:05:33;3.70;63.20
1415;DHT22;702;49.466;11.086;2023-03-12T08:08:01;3.90;62.10
1415;DHT22;702;49.466;11.086;2023-03-12T08:10:30;4.20;62.20
1415;DHT22;702;49.466;11.086;2023-03-12T08:12:57;4.30;61.20
1415;DHT22;702;49.466;11.086;2023-03-12T08:15:24;4.60;60.10
1415;DHT22;702;49.466;11.086;2023-03-12T08:17:51;4.60;59.60
1415;DHT22;702;49.466;11.086;2023-03-12T08:20:18;4.40;59.50
1415;DHT22;702;49.466;11.086;2023-03-12T08:22:47;4.80;59.40
1415;DHT22;702;49.466;11.086;2023-03-12T08:25:14;4.70;58.60
1415;DHT22;702;49.466;11.086;2023-03-12T08:27:44;4.70;59.10
1415;DHT22;702;49.466;11.086;2023-03-12T08:30:12;4.70;59.20
1415;DHT22;702;49.466;11.086;2023-03-12T08:32:39;5.00;58.10
1415;DHT22;702;49.466;11.086;2023-03-12T08:35:07;5.00;57.90
1415;DHT22;702;49.466;11.086;2023-03-12T08:37:35;4.80;57.50
1415;DHT22;702;49.466;11.086;2023-03-12T08:40:04;4.80;57.70
1415;DHT22;702;49.466;11.086;2023-03-12T08:42:37;4.90;57.20
1415;DHT22;702;49.466;11.086;2023-03-12T08:45:08;4.60;57.30
1415;DHT22;702;49.466;11.086;2023-03-12T08:47:39;4.60;57.90
1415;DHT22;702;49.466;11.086;2023-03-12T08:50:08;4.90;57.80
1415;DHT22;702;49.466;11.086;2023-03-12T08:52:36;5.00;57.50
1415;DHT22;702;49.466;11.086;2023-03-12T08:55:04;5.20;57.50
1415;DHT22;702;49.466;11.086;2023-03-12T08:57:31;5.40;57.00
1415;DHT22;702;49.466;11.086;2023-03-12T08:59:59;5.20;56.70
1415;DHT22;702;49.466;11.086;2023-03-12T09:02:27;4.90;57.20
1415;DHT22;702;49.466;11.086;2023-03-12T09:04:55;5.00;57.40
1415;DHT22;702;49.466;11.086;2023-03-12T09:07:22;5.30;57.50
1415;DHT22;702;49.466;11.086;2023-03-12T09:09:49;5.30;57.40
1415;DHT22;702;49.466;11.086;2023-03-12T09:12:16;5.30;57.20
1415;DHT22;702;49.466;11.086;2023-03-12T09:14:44;5.30;57.00
1415;DHT22;702;49.466;11.086;2023-03-12T09:17:11;5.20;57.20
1415;DHT22;702;49.466;11.086;2023-03-12T09:19:40;5.30;57.10
1415;DHT22;702;49.466;11.086;2023-03-12T09:22:07;5.40;57.30
1415;DHT22;702;49.466;11.086;2023-03-12T09:24:37;5.70;57.00
1415;DHT22;702;49.466;11.086;2023-03-12T09:27:04;5.90;56.80
1415;DHT22;702;49.466;11.086;2023-03-12T09:29:33;6.20;56.60
1415;DHT22;702;49.466;11.086;2023-03-12T09:32:00;6.30;56.50
1415;DHT22;702;49.466;11.086;2023-03-12T09:34:28;6.40;56.20
1415;DHT22;702;49.466;11.086;2023-03-12T09:36:57;6.30;56.10
1415;DHT22;702;49.466;11.086;2023-03-12T09:39:24;6.40;56.20
1415;DHT22;702;49.466;11.086;2023-03-12T09:41:51;6.40;56.20
1415;DHT22;702;49.466;11.086;2023-03-12T09:44:25;6.60;56.20
1415;DHT22;702;49.466;11.086;2023-03-12T09:46:58;6.80;55.90
1415;DHT22;702;49.466;11.086;2023-03-12T09:49:33;6.70;55.30
1415;DHT22;702;49.466;11.086;2023-03-12T09:52:16;6.50;55.90
1415;DHT22;702;49.466;11.086;2023-03-12T09:54:51;6.50;55.90
1415;DHT22;702;49.466;11.086;2023-03-12T09:57:24;6.50;56.10
1415;DHT22;702;49.466;11.086;2023-03-12T09:59:54;6.60;56.00
1415;DHT22;702;49.466;11.086;2023-03-12T10:05:35;6.60;56.40
1415;DHT22;702;49.466;11.086;2023-03-12T10:08:10;6.60;56.50
1415;DHT22;702;49.466;11.086;2023-03-12T10:10:51;6.50;56.70
1415;DHT22;702;49.466;11.086;2023-03-12T10:13:56;6.70;56.70
1415;DHT22;702;49.466;11.086;2023-03-12T10:16:43;6.80;56.60
1415;DHT22;702;49.466;11.086;2023-03-12T10:19:25;6.80;56.60
1415;DHT22;702;49.466;11.086;2023-03-12T10:22:05;7.00;56.50
1415;DHT22;702;49.466;11.086;2023-03-12T10:24:44;7.00;57.10
1415;DHT22;702;49.466;11.086;2023-03-12T10:27:28;7.10;57.00
1415;DHT22;702;49.466;11.086;2023-03-12T10:29:58;7.20;57.50
1415;DHT22;702;49.466;11.086;2023-03-12T10:32:34;7.40;57.30
1415;DHT22;702;49.466;11.086;2023-03-12T10:35:13;7.50;57.60
1415;DHT22;702;49.466;11.086;2023-03-12T10:37:45;7.60;57.70
1415;DHT22;702;49.466;11.086;2023-03-12T10:40:17;7.20;58.70
1415;DHT22;702;49.466;11.086;2023-03-12T10:42:45;7.10;59.30
1415;DHT22;702;49.466;11.086;2023-03-12T10:45:20;6.70;60.90
1415;DHT22;702;49.466;11.086;2023-03-12T10:47:54;6.50;62.10
1415;DHT22;702;49.466;11.086;2023-03-12T10:50:26;6.70;62.30
1415;DHT22;702;49.466;11.086;2023-03-12T10:53:19;6.60;62.80
1415;DHT22;702;49.466;11.086;2023-03-12T10:56:02;6.70;63.50
1415;DHT22;702;49.466;11.086;2023-03-12T10:58:34;6.40;64.70
1415;DHT22;702;49.466;11.086;2023-03-12T11:01:04;6.70;65.40
1415;DHT22;702;49.466;11.086;2023-03-12T11:03:33;6.90;65.70
1415;DHT22;702;49.466;11.086;2023-03-12T11:06:01;6.90;65.30
1415;DHT22;702;49.466;11.086;2023-03-12T11:08:30;7.00;65.30
1415;DHT22;702;49.466;11.086;2023-03-12T11:11:02;6.80;65.60
1415;DHT22;702;49.466;11.086;2023-03-12T11:13:31;6.80;66.50
1415;DHT22;702;49.466;11.086;2023-03-12T11:16:01;7.20;66.70
1415;DHT22;702;49.466;11.086;2023-03-12T11:18:34;7.10;66.40
1415;DHT22;702;49.466;11.086;2023-03-12T11:21:16;7.00;66.40
1415;DHT22;702;49.466;11.086;2023-03-12T11:24:03;6.60;67.20
1415;DHT22;702;49.466;11.086;2023-03-12T11:26:38;6.60;67.80
1415;DHT22;702;49.466;11.086;2023-03-12T11:29:18;6.80;67.90
1415;DHT22;702;49.466;11.086;2023-03-12T11:32:01;6.70;67.90
1415;DHT22;702;49.466;11.086;2023-03-12T11:34:34;6.50;68.90
1415;DHT22;702;49.466;11.086;2023-03-12T11:37:07;6.50;69.10
1415;DHT22;702;49.466;11.086;2023-03-12T11:39:48;6.50;69.60
1415;DHT22;702;49.466;11.086;2023-03-12T11:42:32;6.40;70.30
1415;DHT22;702;49.466;11.086;2023-03-12T11:45:08;6.30;71.30
1415;DHT22;702;49.466;11.086;2023-03-12T11:47:51;6.20;72.30
1415;DHT22;702;49.466;11.086;2023-03-12T11:50:34;6.10;73.00
1415;DHT22;702;49.466;11.086;2023-03-12T11:53:22;6.20;73.30
1415;DHT22;702;49.466;11.086;2023-03-12T11:56:11;6.20;73.60
1415;DHT22;702;49.466;11.086;2023-03-12T11:59:01;6.20;75.40
1415;DHT22;702;49.466;11.086;2023-03-12T12:01:52;6.30;76.70
1415;DHT22;702;49.466;11.086;2023-03-12T12:04:45;6.30;77.00
1415;DHT22;702;49.466;11.086;2023-03-12T12:07:44;6.40;76.80
1415;DHT22;702;49.466;11.086;2023-03-12T12:10:26;6.40;77.40
1415;DHT22;702;49.466;11.086;2023-03-12T12:13:05;6.10;77.80
1415;DHT22;702;49.466;11.086;2023-03-12T12:15:44;6.20;78.20
1415;DHT22;702;49.466;11.086;2023-03-12T12:18:32;6.40;78.60
1415;DHT22;702;49.466;11.086;2023-03-12T12:21:25;6.30;78.80
1415;DHT22;702;49.466;11.086;2023-03-12T12:24:04;6.40;78.90
1415;DHT22;702;49.466;11.086;2023-03-12T12:26:41;6.50;79.10
1415;DHT22;702;49.466;11.086;2023-03-12T12:29:24;6.50;79.40
1415;DHT22;702;49.466;11.086;2023-03-12T12:32:01;6.60;80.50
1415;DHT22;702;49.466;11.086;2023-03-12T12:34:52;6.60;79.90
1415;DHT22;702;49.466;11.086;2023-03-12T12:37:33;6.60;80.50
1415;DHT22;702;49.466;11.086;2023-03-12T12:40:15;6.60;81.00
1415;DHT22;702;49.466;11.086;2023-03-12T12:42:54;6.80;81.00
1415;DHT22;702;49.466;11.086;2023-03-12T12:45:26;6.80;81.00
1415;DHT22;702;49.466;11.086;2023-03-12T12:47:59;6.60;82.00
1415;DHT22;702;49.466;11.086;2023-03-12T12:50:32;6.70;82.10
1415;DHT22;702;49.466;11.086;2023-03-12T12:53:12;6.90;82.00
1415;DHT22;702;49.466;11.086;2023-03-12T12:55:47;6.70;82.30
1415;DHT22;702;49.466;11.086;2023-03-12T12:58:22;6.70;82.70
1415;DHT22;702;49.466;11.086;2023-03-12T13:01:07;7.00;83.40
1415;DHT22;702;49.466;11.086;2023-03-12T13:03:39;6.90;82.80
1415;DHT22;702;49.466;11.086;2023-03-12T13:06:07;7.10;82.60
1415;DHT22;702;49.466;11.086;2023-03-12T13:08:59;7.00;82.90
1415;DHT22;702;49.466;11.086;2023-03-12T13:11:30;7.00;83.50
1415;DHT22;702;49.466;11.086;2023-03-12T13:14:20;6.80;83.70
1415;DHT22;702;49.466;11.086;2023-03-12T13:17:07;6.90;85.00
1415;DHT22;702;49.466;11.086;2023-03-12T13:20:13;7.00;84.60
1415;DHT22;702;49.466;11.086;2023-03-12T13:22:59;7.20;84.30
1415;DHT22;702;49.466;11.086;2023-03-12T13:25:46;7.20;85.90
1415;DHT22;702;49.466;11.086;2023-03-12T13:28:29;7.10;85.80
1415;DHT22;702;49.466;11.086;2023-03-12T13:31:00;7.10;86.10
1415;DHT22;702;49.466;11.086;2023-03-12T13:33:42;7.20;86.40
1415;DHT22;702;49.466;11.086;2023-03-12T13:36:21;7.30;85.80
1415;DHT22;702;49.466;11.086;2023-03-12T13:38:54;7.40;85.60
1415;DHT22;702;49.466;11.086;2023-03-12T13:41:32;7.30;86.70
1415;DHT22;702;49.466;11.086;2023-03-12T13:44:27;7.10;88.40
1415;DHT22;702;49.466;11.086;2023-03-12T13:46:58;7.10;88.50
1415;DHT22;702;49.466;11.086;2023-03-12T13:49:34;7.00;90.30
1415;DHT22;702;49.466;11.086;2023-03-12T13:52:20;6.90;90.70
1415;DHT22;702;49.466;11.086;2023-03-12T13:54:56;6.90;90.80
1415;DHT22;702;49.466;11.086;2023-03-12T13:57:32;7.00;90.40
1415;DHT22;702;49.466;11.086;2023-03-12T14:00:05;7.00;91.00
1415;DHT22;702;49.466;11.086;2023-03-12T14:02:44;7.00;90.90
1415;DHT22;702;49.466;11.086;2023-03-12T14:05:14;7.10;91.40
1415;DHT22;702;49.466;11.086;2023-03-12T14:11:22;7.20;91.40
1415;DHT22;702;49.466;11.086;2023-03-12T14:17:02;7.40;90.80
1415;DHT22;702;49.466;11.086;2023-03-12T14:19:32;7.40;91.20
1415;DHT22;702;49.466;11.086;2023-03-12T14:22:03;7.40;91.30
1415;DHT22;702;49.466;11.086;2023-03-12T14:24:34;7.50;91.40
1415;DHT22;702;49.466;11.086;2023-03-12T14:27:05;7.50;91.30
1415;DHT22;702;49.466;11.086;2023-03-12T14:29:36;7.40;92.20
1415;DHT22;702;49.466;11.086;2023-03-12T14:32:12;7.60;92.10
1415;DHT22;702;49.466;11.086;2023-03-12T14:34:44;7.70;91.50
1415;DHT22;702;49.466;11.086;2023-03-12T14:37:15;8.00;90.40
1415;DHT22;702;49.466;11.086;2023-03-12T14:39:48;8.00;90.90
1415;DHT22;702;49.466;11.086;2023-03-12T14:42:21;8.50;89.40
1415;DHT22;702;49.466;11.086;2023-03-12T14:44:57;8.50;89.10
1415;DHT22;702;49.466;11.086;2023-03-12T14:47:25;8.50;89.10
1415;DHT22;702;49.466;11.086;2023-03-12T14:49:55;8.60;89.20
1415;DHT22;702;49.466;11.086;2023-03-12T14:52:25;8.70;88.80
1415;DHT22;702;49.466;11.086;2023-03-12T14:54:57;8.90;88.70
1415;DHT22;702;49.466;11.086;2023-03-12T14:57:26;8.90;88.40
1415;DHT22;702;49.466;11.086;2023-03-12T14:59:55;8.90;89.00
1415;DHT22;702;49.466;11.086;2023-03-12T15:02:24;9.30;87.20
1415;DHT22;702;49.466;11.086;2023-03-12T15:04:54;9.40;86.80
1415;DHT22;702;49.466;11.086;2023-03-12T15:07:26;9.60;86.20
1415;DHT22;702;49.466;11.086;2023-03-12T15:09:57;9.70;85.70
1415;DHT22;702;49.466;11.086;2023-03-12T15:12:26;9.40;86.10
1415;DHT22;702;49.466;11.086;2023-03-12T15:15:06;9.20;86.80
1415;DHT22;702;49.466;11.086;2023-03-12T15:17:35;9.00;88.60
1415;DHT22;702;49.466;11.086;2023-03-12T15:20:04;8.90;89.20
1415;DHT22;702;49.466;11.086;2023-03-12T15:22:35;8.90;90.00
1415;DHT22;702;49.466;11.086;2023-03-12T15:25:20;8.80;90.40
1415;DHT22;702;49.466;11.086;2023-03-12T15:27:48;8.80;90.40
1415;DHT22;702;49.466;11.086;2023-03-12T15:30:27;9.00;90.00
1415;DHT22;702;49.466;11.086;2023-03-12T15:33:05;9.00;89.50
1415;DHT22;702;49.466;11.086;2023-03-12T15:35:35;9.10;89.90
1415;DHT22;702;49.466;11.086;2023-03-12T15:38:03;9.10;89.10
1415;DHT22;702;49.466;11.086;2023-03-12T15:40:32;9.20;89.10
1415;DHT22;702;49.466;11.086;2023-03-12T15:43:00;9.10;89.40
1415;DHT22;702;49.466;11.086;2023-03-12T15:45:34;9.20;89.10
1415;DHT22;702;49.466;11.086;2023-03-12T15:48:04;9.30;88.30
1415;DHT22;702;49.466;11.086;2023-03-12T15:50:43;9.60;87.30
1415;DHT22;702;49.466;11.086;2023-03-12T15:53:25;9.80;86.90
1415;DHT22;702;49.466;11.086;2023-03-12T15:56:02;9.80;85.80
1415;DHT22;702;49.466;11.086;2023-03-12T15:58:31;9.70;85.90
1415;DHT22;702;49.466;11.086;2023-03-12T16:01:08;9.70;85.70
1415;DHT22;702;49.466;11.086;2023-03-12T16:03:37;9.80;85.80
1415;DHT22;702;49.466;11.086;2023-03-12T16:06:08;9.90;85.50
1415;DHT22;702;49.466;11.086;2023-03-12T16:08:39;10.00;84.20
1415;DHT22;702;49.466;11.086;2023-03-12T16:11:14;10.00;83.90
1415;DHT22;702;49.466;11.086;2023-03-12T16:13:43;9.90;85.10
1415;DHT22;702;49.466;11.086;2023-03-12T16:16:13;9.80;85.00
1415;DHT22;702;49.466;11.086;2023-03-12T16:18:41;9.70;84.80
1415;DHT22;702;49.466;11.086;2023-03-12T16:21:09;9.70;85.20
1415;DHT22;702;49.466;11.086;2023-03-12T16:23:37;9.60;85.40
1415;DHT22;702;49.466;11.086;2023-03-12T16:26:05;9.60;85.40
1415;DHT22;702;49.466;11.086;2023-03-12T16:28:34;9.60;85.30
1415;DHT22;702;49.466;11.086;2023-03-12T16:31:02;9.50;85.70
1415;DHT22;702;49.466;11.086;2023-03-12T16:33:35;9.50;85.50
1415;DHT22;702;49.466;11.086;2023-03-12T16:36:02;9.40;85.50
1415;DHT22;702;49.466;11.086;2023-03-12T16:38:32;9.40;85.60
1415;DHT22;702;49.466;11.086;2023-03-12T16:40:59;9.50;85.50
1415;DHT22;702;49.466;11.086;2023-03-12T16:43:27;9.40;85.30
1415;DHT22;702;49.466;11.086;2023-03-12T16:45:57;9.40;85.40
1415;DHT22;702;49.466;11.086;2023-03-12T16:48:25;9.40;85.60